Terminal Aerodrome Forecast
Issued by NWS

Home | Current Version | Previous Version | Text Only | Print | Product List | Glossary On
Versions: 1 2 3 4 5 6 7 8 9 10 11 12 13 14 15 16
895
FTUS45 KRIW 091721
TAFCPR
TAF
KCPR 091721Z 0918/1018 22011KT P6SM SCT100 BKN200
     FM092100 23012G20KT P6SM BKN100
     FM101200 22022G32KT P6SM VCSH BKN100=

USA.gov is the U.S. government's official web portal to all federal, state and local government web resources and services.